Wetterdaten: aktuell Sonntag, 06.09.2026 18:10
Datum Zeit Arbeit-Z. Temp. A. Bod.+5cm Temp. A. min Temp. A. max Bl.Temp +1m BTemp -5cm BTemp -10cm BTemp -20cm BTemp -50cm Feuchte I. Feuchte A. BlattFeu +1m BFeucht -5cm BFeucht-10cm BFeucht-20cm BFeucht-50cm Luftdruck Regen Wind Richtung Richtung Sonnenschein ET UV Solar Taupunkt Windchill Windböen Empfang
06.09.2026 18:10 26,7 °C 28,3 °C 27,2 °C 28,3 °C 28,7 °C 21,7 °C 21,7 °C 21,1 °C 20,0 °C 20,6 °C 40 % 35 % 0 lf 200 cb 200 cb 200 cb 127 cb 1018,8 hPa 0,0 l/m² 2,1 km/h (1 Bft) O-SO 116 ° 25 min 0,229 mm 0,0 UV-I 70 W/m² 11,4 °C 28,3 °C 8,0 km/h (2 Bft) 94,92 %
06.09.2026 17:10 26,4 °C 29,1 °C 31,7 °C 29,0 °C 29,3 °C 22,2 °C 22,2 °C 21,1 °C 20,0 °C 20,6 °C 40 % 41 % 0 lf 200 cb 200 cb 200 cb 127 cb 1019,3 hPa 0,0 l/m² 6,9 km/h (2 Bft) N 360 ° 60 min 0,381 mm 1,3 UV-I 374 W/m² 14,5 °C 29,0 °C 12,9 km/h (3 Bft) 94,07 %
06.09.2026 16:10 25,7 °C 28,7 °C 28,9 °C 28,7 °C 29,3 °C 22,2 °C 22,2 °C 20,6 °C 20,0 °C 20,6 °C 42 % 42 % 0 lf 200 cb 200 cb 200 cb 126 cb 1019,8 hPa 0,0 l/m² 3,0 km/h (1 Bft) O-NO 69 ° 60 min 0,355 mm 2,2 UV-I 499 W/m² 14,5 °C 28,7 °C 9,7 km/h (2 Bft) 99,16 %
06.09.2026 15:10 25,5 °C 28,7 °C 27,8 °C 28,7 °C 28,8 °C 22,8 °C 22,8 °C 20,6 °C 20,0 °C 20,6 °C 42 % 43 % 0 lf 200 cb 200 cb 200 cb 127 cb 1020,5 hPa 0,0 l/m² 7,9 km/h (2 Bft) W-SW 246 ° 60 min 0,534 mm 2,5 UV-I 608 W/m² 14,9 °C 28,5 °C 14,5 km/h (3 Bft) 97,39 %
06.09.2026 14:10 25,4 °C 28,1 °C 26,7 °C 27,9 °C 28,1 °C 23,3 °C 23,3 °C 20,0 °C 19,4 °C 20,6 °C 42 % 46 % 0 lf 200 cb 200 cb 200 cb 126 cb 1021,3 hPa 0,0 l/m² 7,4 km/h (2 Bft) N 5 ° 60 min 0,508 mm 4,1 UV-I 693 W/m² 15,4 °C 27,9 °C 19,3 km/h (3 Bft) 91,45 %
06.09.2026 13:10 25,1 °C 27,6 °C 25,0 °C 27,1 °C 27,6 °C 21,7 °C 21,7 °C 19,4 °C 19,4 °C 20,6 °C 42 % 51 % 0 lf 200 cb 200 cb 200 cb 125 cb 1021,9 hPa 0,0 l/m² 3,3 km/h (1 Bft) N-NW 338 ° 60 min 0,457 mm 4,2 UV-I 686 W/m² 16,5 °C 27,6 °C 9,7 km/h (2 Bft) 97,46 %
06.09.2026 12:10 24,8 °C 25,7 °C 23,9 °C 25,6 °C 26,1 °C 20,0 °C 20,0 °C 18,9 °C 19,4 °C 20,6 °C 43 % 51 % 0 lf 200 cb 200 cb 200 cb 125 cb 1022,7 hPa 0,0 l/m² 1,5 km/h (1 Bft) O-SO 116 ° 60 min 0,406 mm 3,8 UV-I 671 W/m² 14,8 °C 25,7 °C 4,8 km/h (1 Bft) 99,15 %
06.09.2026 11:10 24,6 °C 24,2 °C 22,2 °C 23,8 °C 24,3 °C 18,9 °C 18,9 °C 18,9 °C 20,0 °C 20,6 °C 43 % 54 % 0 lf 200 cb 200 cb 200 cb 125 cb 1023,2 hPa 0,0 l/m² 1,7 km/h (1 Bft) W-NW 302 ° 60 min 0,330 mm 2,8 UV-I 582 W/m² 14,3 °C 24,2 °C 4,8 km/h (1 Bft) 96,69 %
06.09.2026 10:10 24,4 °C 21,8 °C 20,0 °C 21,5 °C 21,8 °C 17,2 °C 17,2 °C 18,9 °C 20,0 °C 20,6 °C 43 % 58 % 0 lf 200 cb 200 cb 200 cb 125 cb 1023,4 hPa 0,0 l/m² 3,7 km/h (1 Bft) O-SO 107 ° 60 min 0,229 mm 1,7 UV-I 457 W/m² 13,2 °C 21,8 °C 9,7 km/h (2 Bft) 94,92 %
06.09.2026 09:10 24,8 °C 17,6 °C 17,2 °C 17,3 °C 17,6 °C 16,7 °C 16,7 °C 18,9 °C 20,0 °C 20,6 °C 42 % 69 % 0 lf 200 cb 200 cb 200 cb 125 cb 1023,6 hPa 0,0 l/m² 1,5 km/h (1 Bft) SO 140 ° 40 min 0,076 mm 0,8 UV-I 309 W/m² 11,8 °C 17,6 °C 4,8 km/h (1 Bft) 94,21 %
06.09.2026 08:10 25,4 °C 13,9 °C 12,8 °C 13,7 °C 13,9 °C 16,7 °C 16,7 °C 19,4 °C 20,0 °C 20,6 °C 41 % 79 % 0 lf 200 cb 200 cb 200 cb 125 cb 1023,9 hPa 0,0 l/m² 1,9 km/h (1 Bft) O-NO 71 ° 0 min 0,026 mm 0,0 UV-I 25 W/m² 10,3 °C 13,9 °C 4,8 km/h (1 Bft) 95,73 %
06.09.2026 07:10 25,7 °C 13,1 °C 11,7 °C 13,0 °C 13,1 °C 16,7 °C 16,7 °C 19,4 °C 20,6 °C 20,6 °C 44 % 80 % 0 lf 200 cb 200 cb 200 cb 125 cb 1023,9 hPa 0,0 l/m² 1,7 km/h (1 Bft) O-SO 111 ° 0 min 0,000 mm 0,0 UV-I 9 W/m² 9,7 °C 13,1 °C 4,8 km/h (1 Bft) 96,36 %
06.09.2026 06:10 25,8 °C 13,1 °C 11,7 °C 13,0 °C 13,2 °C 17,2 °C 17,2 °C 20,0 °C 20,6 °C 20,6 °C 44 % 80 % 0 lf 200 cb 200 cb 200 cb 125 cb 1023,6 hPa 0,0 l/m² 1,0 km/h (0 Bft) SO 127 ° 0 min 0,025 mm 0,0 UV-I 0 W/m² 9,7 °C 13,1 °C 4,8 km/h (1 Bft) 95,76 %
06.09.2026 05:10 25,8 °C 13,6 °C 12,2 °C 13,6 °C 13,7 °C 17,2 °C 17,2 °C 20,0 °C 20,6 °C 20,6 °C 44 % 77 % 0 lf 200 cb 200 cb 200 cb 124 cb 1023,8 hPa 0,0 l/m² 1,9 km/h (1 Bft) O-SO 104 ° 0 min 0,025 mm 0,0 UV-I 0 W/m² 9,6 °C 13,6 °C 4,8 km/h (1 Bft) 91,67 %
06.09.2026 04:10 25,9 °C 14,1 °C 12,2 °C 13,9 °C 14,1 °C 17,8 °C 17,8 °C 20,0 °C 20,6 °C 20,6 °C 44 % 76 % 0 lf 200 cb 200 cb 200 cb 124 cb 1023,8 hPa 0,0 l/m² 0,7 km/h (0 Bft) O 79 ° 0 min 0,026 mm 0,0 UV-I 0 W/m² 9,9 °C 14,1 °C 4,8 km/h (1 Bft) 94,02 %
06.09.2026 03:10 26,0 °C 14,4 °C 12,8 °C 14,3 °C 14,4 °C 18,3 °C 18,3 °C 20,6 °C 20,6 °C 20,6 °C 44 % 76 % 0 lf 200 cb 200 cb 200 cb 123 cb 1023,8 hPa 0,0 l/m² 1,2 km/h (1 Bft) O-SO 111 ° 0 min 0,025 mm 0,0 UV-I 0 W/m² 10,2 °C 14,4 °C 4,8 km/h (1 Bft) 93,52 %
06.09.2026 02:10 26,0 °C 14,9 °C 13,3 °C 14,8 °C 14,9 °C 18,3 °C 18,3 °C 20,6 °C 21,1 °C 20,6 °C 44 % 74 % 0 lf 200 cb 200 cb 200 cb 123 cb 1023,7 hPa 0,0 l/m² 0,0 km/h (0 Bft) O 96 ° 0 min 0,026 mm 0,0 UV-I 0 W/m² 10,3 °C 14,9 °C 0,0 km/h (0 Bft) 95,37 %
06.09.2026 01:10 26,1 °C 15,2 °C 13,3 °C 15,2 °C 15,3 °C 18,9 °C 18,9 °C 20,6 °C 21,1 °C 20,6 °C 45 % 73 % 0 lf 200 cb 200 cb 200 cb 123 cb 1023,5 hPa 0,0 l/m² 1,2 km/h (1 Bft) SO 128 ° 0 min 0,025 mm 0,0 UV-I 0 W/m² 10,4 °C 15,2 °C 3,2 km/h (1 Bft) 95,54 %
06.09.2026 00:10 26,1 °C 16,0 °C 13,9 °C 15,9 °C 16,3 °C 18,9 °C 18,9 °C 21,1 °C 21,1 °C 20,6 °C 45 % 73 % 0 lf 200 cb 200 cb 200 cb 123 cb 1023,1 hPa 0,0 l/m² 0,4 km/h (0 Bft) S 176 ° 0 min 0,000 mm 0,0 UV-I 0 W/m² 11,2 °C 16,0 °C 3,2 km/h (1 Bft) 97,22 %
05.09.2026 23:10 26,1 °C 17,1 °C 15,6 °C 17,0 °C 17,1 °C 19,4 °C 19,4 °C 21,1 °C 21,1 °C 20,6 °C 45 % 70 % 0 lf 200 cb 200 cb 200 cb 123 cb 1022,8 hPa 0,0 l/m² 2,5 km/h (1 Bft) O 84 ° 0 min 0,026 mm 0,0 UV-I 0 W/m² 11,6 °C 17,1 °C 6,4 km/h (2 Bft) 94,87 %
05.09.2026 22:10 26,1 °C 16,6 °C 15,0 °C 16,5 °C 16,7 °C 20,0 °C 20,0 °C 21,1 °C 21,1 °C 21,1 °C 45 % 73 % 0 lf 200 cb 200 cb 200 cb 123 cb 1022,1 hPa 0,0 l/m² 0,8 km/h (0 Bft) SO 137 ° 0 min 0,025 mm 0,0 UV-I 0 W/m² 11,7 °C 16,6 °C 4,8 km/h (1 Bft) 95,65 %
05.09.2026 21:10 26,2 °C 18,7 °C 16,7 °C 18,7 °C 18,9 °C 20,0 °C 20,0 °C 21,1 °C 21,1 °C 21,1 °C 44 % 68 % 0 lf 200 cb 200 cb 200 cb 123 cb 1021,5 hPa 0,0 l/m² 0,4 km/h (0 Bft) S 182 ° 0 min 0,001 mm 0,0 UV-I 0 W/m² 12,7 °C 18,7 °C 3,2 km/h (1 Bft) 96,61 %
05.09.2026 20:10 26,4 °C 21,9 °C 18,9 °C 21,9 °C 22,2 °C 20,6 °C 20,6 °C 21,7 °C 21,1 °C 21,1 °C 42 % 57 % 0 lf 200 cb 200 cb 200 cb 123 cb 1020,7 hPa 0,0 l/m² 0,0 km/h (0 Bft) W-SW 240 ° 0 min 0,001 mm 0,0 UV-I 0 W/m² 13,0 °C 21,9 °C 0,0 km/h (0 Bft) 95,00 %
05.09.2026 19:10 26,6 °C 24,9 °C 23,3 °C 24,8 °C 24,9 °C 20,6 °C 20,6 °C 21,7 °C 21,1 °C 21,1 °C 42 % 45 % 0 lf 200 cb 200 cb 200 cb 123 cb 1020,3 hPa 0,0 l/m² 2,3 km/h (1 Bft) W-NW 300 ° 0 min 0,076 mm 0,0 UV-I 19 W/m² 12,1 °C 24,9 °C 9,7 km/h (2 Bft) 96,36 %
05.09.2026 19:00 26,7 °C 25,2 °C 25,0 °C 25,2 °C 25,5 °C 20,6 °C 20,6 °C 21,7 °C 21,1 °C 21,1 °C 42 % 45 % 0 lf 200 cb 200 cb 200 cb 123 cb 1020,2 hPa 0,0 l/m² 2,7 km/h (1 Bft) N-NW 348 ° 0 min 0,000 mm 0,0 UV-I 21 W/m² 12,4 °C 25,2 °C 6,4 km/h (2 Bft) 96,83 %
_ Min-Zeit 09:55 06:00 06:45 06:00 06:50 07:10 07:10 09:10 12:05 21:30 17:35 18:05 19:00 19:00 19:00 19:00 21:30 17:40 - 19:50 - - - - - - 06:00 06:00 19:50 07:50
Minimum _ 24,4 °C 12,9 °C 11,1 °C 12,9 °C 12,9 °C 16,7 °C 16,7 °C 18,9 °C 19,4 °C 20,6 °C 39 % 35 % 0 lf 200 cb 200 cb 200 cb 122 cb 1018,8 hPa - 0,0 km/h (0 Bft) - - - - - - 9,5 °C 12,9 °C 0,0 km/h (0 Bft) 84,17 %
_ Max-Zeit 17:40 16:45 17:30 16:45 16:45 14:10 14:10 19:00 19:00 19:00 21:55 05:55 19:00 19:00 19:00 19:00 14:45 07:30 19:00 14:25 - - 08:35 15:00 13:05 14:40 13:10 16:45 13:55 06:50
Maximum _ 26,8 °C 29,5 °C 35,6 °C 29,3 °C 29,5 °C 23,3 °C 23,3 °C 21,7 °C 21,1 °C 21,1 °C 45 % 80 % 0 lf 200 cb 200 cb 200 cb 127 cb 1024,0 hPa 0,0 l/m² 10,8 km/h
NW (2 Bft)
- - 5 min 0,534 mm 4,3 UV-I 721 W/m² 16,5 °C 29,4 °C 20,9 km/h
NW (4 Bft)
99,19 %
Durchschnitt _ 25,8 °C 20,4 °C 19,3 °C 20,3 °C 20,6 °C 19,5 °C 19,5 °C 20,4 °C 20,5 °C 20,7 °C 43 % 61 % 0 lf 200 cb 200 cb 200 cb 124 cb 1022,2 hPa #0,0 l/m² 2,3 km/h (1 Bft) O-SO - #9:05 h #3,683 mm 2,5 UV-I 436 W/m² 12,2 °C 20,4 °C 6,4 km/h (2 Bft) 95,26 %
copy; 2009 Dieter Kraft